createdAt,value
2023-03-01T00:00:38.719Z,7.45
2023-03-01T00:04:51.212Z,6.10
2023-03-01T00:09:03.939Z,5.82
2023-03-01T00:13:16.877Z,7.57
2023-03-01T00:17:31.387Z,6.80
2023-03-01T00:21:44.055Z,5.97
2023-03-01T00:25:58.953Z,5.82
2023-03-01T00:30:12.162Z,6.47
2023-03-01T00:34:24.572Z,5.88
2023-03-01T00:38:40.521Z,6.45
2023-03-01T00:42:53.139Z,7.20
2023-03-01T00:47:05.566Z,6.57
2023-03-01T00:51:19.991Z,6.88
2023-03-01T00:55:32.522Z,6.57
2023-03-01T00:59:45.655Z,6.68
2023-03-01T01:04:01.228Z,6.57
2023-03-01T01:08:13.764Z,6.10
2023-03-01T01:12:26.205Z,6.82
2023-03-01T01:16:38.631Z,6.43
2023-03-01T01:20:51.027Z,6.72
2023-03-01T01:25:03.708Z,6.25
2023-03-01T01:29:16.394Z,6.32
2023-03-01T01:33:29.226Z,7.03
2023-03-01T01:37:41.607Z,6.40
2023-03-01T01:41:54.061Z,6.45
2023-03-01T01:46:19.907Z,6.38
2023-03-01T01:50:39.047Z,5.55
2023-03-01T01:59:12.473Z,5.72
2023-03-01T02:03:30.192Z,5.88
2023-03-01T02:07:43.782Z,5.88
2023-03-01T02:11:56.390Z,5.03
2023-03-01T02:16:15.599Z,5.03
2023-03-01T02:20:32.814Z,4.47
2023-03-01T02:24:50.845Z,4.32
2023-03-01T02:29:03.266Z,4.20
2023-03-01T02:33:16.671Z,4.43
2023-03-01T02:37:32.142Z,4.43
2023-03-01T02:41:49.803Z,4.40
2023-03-01T02:46:09.001Z,3.83
2023-03-01T02:50:30.633Z,4.05
2023-03-01T02:55:14.310Z,3.90
2023-03-01T02:59:32.981Z,3.35
2023-03-01T03:03:45.997Z,3.13
2023-03-01T03:08:01.394Z,3.50
2023-03-01T03:12:16.112Z,3.00
2023-03-01T03:16:28.971Z,3.25
2023-03-01T03:20:43.192Z,3.13
2023-03-01T03:24:55.543Z,2.38
2023-03-01T03:29:09.127Z,2.72
2023-03-01T03:33:21.550Z,2.33
2023-03-01T03:37:52.137Z,2.40
2023-03-01T03:42:04.472Z,2.85
2023-03-01T03:46:18.255Z,2.33
2023-03-01T03:50:30.740Z,2.63
2023-03-01T03:54:43.102Z,2.53
2023-03-01T03:58:55.509Z,1.95
2023-03-01T04:03:08.204Z,2.67
2023-03-01T04:07:20.668Z,2.15
2023-03-01T04:11:34.025Z,2.38
2023-03-01T04:15:46.674Z,2.50
2023-03-01T04:20:00.199Z,2.92
2023-03-01T04:24:13.689Z,2.92
2023-03-01T04:28:28.536Z,2.50
2023-03-01T04:32:41.031Z,2.28
2023-03-01T04:36:54.566Z,2.65
2023-03-01T04:41:14.609Z,2.80
2023-03-01T04:45:27.182Z,2.42
2023-03-01T04:49:40.012Z,2.50
2023-03-01T04:53:52.452Z,2.30
2023-03-01T04:58:05.845Z,2.72
2023-03-01T05:02:18.228Z,2.45
2023-03-01T05:06:30.884Z,2.05
2023-03-01T05:10:43.372Z,2.88
2023-03-01T05:14:55.684Z,2.30
2023-03-01T05:19:16.397Z,2.42
2023-03-01T05:23:30.241Z,3.65
2023-03-01T05:27:42.826Z,4.30
2023-03-01T05:32:16.979Z,2.28
2023-03-01T05:36:29.834Z,3.33
2023-03-01T05:40:47.149Z,2.10
2023-03-01T05:44:59.504Z,2.90
2023-03-01T05:49:14.615Z,2.55
2023-03-01T05:53:27.801Z,2.53
2023-03-01T05:57:40.179Z,2.83
2023-03-01T06:01:52.554Z,2.83
2023-03-01T06:06:05.103Z,2.78
2023-03-01T06:10:18.844Z,2.83
2023-03-01T06:14:31.421Z,2.97
2023-03-01T06:18:44.243Z,3.00
2023-03-01T06:22:57.462Z,2.95
2023-03-01T06:27:10.171Z,2.92
2023-03-01T06:31:23.575Z,2.72
2023-03-01T06:35:36.350Z,3.38
2023-03-01T06:39:48.894Z,3.47
2023-03-01T06:44:01.406Z,3.55
2023-03-01T06:48:13.790Z,3.38
2023-03-01T06:52:26.312Z,3.22
2023-03-01T06:56:38.706Z,3.20
2023-03-01T07:00:51.215Z,3.35
2023-03-01T07:05:03.816Z,3.35
2023-03-01T07:09:20.960Z,2.95
2023-03-01T07:13:33.587Z,2.83
2023-03-01T07:17:48.848Z,3.40
2023-03-01T07:22:01.274Z,3.05
2023-03-01T07:26:13.700Z,3.08
2023-03-01T07:30:29.794Z,3.15
2023-03-01T07:34:42.364Z,3.10
2023-03-01T07:38:56.906Z,3.47
2023-03-01T07:43:09.285Z,3.75
2023-03-01T07:47:21.728Z,3.17
2023-03-01T07:51:34.055Z,3.38
2023-03-01T07:55:46.338Z,3.90
2023-03-01T07:59:58.737Z,3.90
2023-03-01T08:04:11.811Z,4.05
2023-03-01T08:08:24.223Z,3.78
2023-03-01T08:12:36.699Z,3.50
2023-03-01T08:16:51.383Z,3.70
2023-03-01T08:21:08.123Z,4.63
2023-03-01T08:25:20.534Z,3.70
2023-03-01T08:29:34.109Z,3.50
2023-03-01T08:33:56.402Z,3.75
2023-03-01T08:38:08.868Z,4.03
2023-03-01T08:42:21.246Z,3.58
2023-03-01T08:46:39.493Z,3.63
2023-03-01T08:50:52.400Z,3.70
2023-03-01T08:55:05.138Z,3.20
2023-03-01T08:59:18.834Z,4.15
2023-03-01T09:03:31.376Z,3.85
2023-03-01T09:07:44.081Z,3.63
2023-03-01T09:11:57.046Z,3.40
2023-03-01T09:16:10.229Z,3.88
2023-03-01T09:20:23.452Z,4.20
2023-03-01T09:24:35.820Z,4.85
2023-03-01T09:28:52.085Z,3.85
2023-03-01T09:33:04.641Z,4.70
2023-03-01T09:37:16.958Z,4.43
2023-03-01T09:41:43.991Z,4.38
2023-03-01T09:46:00.199Z,4.03
2023-03-01T09:50:20.853Z,4.47
2023-03-01T09:54:33.436Z,4.65
2023-03-01T09:59:23.358Z,4.65
2023-03-01T10:03:46.627Z,5.70
2023-03-01T10:08:05.212Z,4.70
2023-03-01T10:12:21.964Z,5.50
2023-03-01T10:16:55.837Z,5.05
2023-03-01T10:21:21.690Z,5.50
2023-03-01T10:25:42.451Z,4.63
2023-03-01T10:30:27.828Z,5.40
2023-03-01T10:34:43.130Z,5.28
2023-03-01T10:38:58.967Z,5.25
2023-03-01T10:43:14.787Z,5.45
2023-03-01T10:47:29.175Z,6.43
2023-03-01T10:51:43.835Z,5.38
2023-03-01T10:56:16.739Z,5.25
2023-03-01T11:00:29.221Z,5.38
2023-03-01T11:04:57.299Z,4.45
2023-03-01T11:09:28.580Z,5.43
2023-03-01T11:14:03.171Z,4.93
2023-03-01T11:18:44.339Z,5.72
2023-03-01T11:23:14.377Z,4.88
2023-03-01T11:27:30.299Z,5.38
2023-03-01T11:31:56.743Z,5.00
2023-03-01T11:36:32.596Z,5.18
2023-03-01T11:40:50.066Z,5.22
2023-03-01T11:45:07.888Z,4.72
2023-03-01T11:49:41.609Z,5.63
2023-03-01T11:54:20.215Z,6.20
2023-03-01T11:58:55.444Z,6.05
2023-03-01T12:03:22.729Z,5.30
2023-03-01T12:07:55.509Z,5.93
2023-03-01T12:12:44.656Z,5.82
2023-03-01T12:17:34.435Z,5.80
2023-03-01T12:22:08.122Z,5.73
2023-03-01T12:26:20.580Z,5.78
2023-03-01T12:30:44.719Z,6.15
2023-03-01T12:35:15.730Z,6.47
2023-03-01T12:39:42.381Z,5.85
2023-03-01T12:44:13.579Z,5.85
2023-03-01T12:48:31.606Z,5.43
2023-03-01T12:52:59.689Z,6.55
2023-03-01T12:57:38.355Z,4.88
2023-03-01T13:02:16.933Z,4.82
2023-03-01T13:06:43.294Z,4.85
2023-03-01T13:11:07.116Z,5.38
2023-03-01T13:15:25.596Z,6.50
2023-03-01T13:19:38.125Z,6.53
2023-03-01T13:23:50.554Z,6.40
2023-03-01T13:28:39.467Z,6.72
2023-03-01T13:32:52.133Z,8.40
2023-03-01T13:37:20.950Z,7.07
2023-03-01T13:41:48.009Z,6.65
2023-03-01T13:46:01.322Z,7.50
2023-03-01T13:50:40.647Z,7.32
2023-03-01T13:54:55.073Z,6.85
2023-03-01T13:59:16.164Z,6.95
2023-03-01T14:03:31.029Z,7.72
2023-03-01T14:07:43.415Z,6.75
2023-03-01T14:12:07.690Z,7.55
2023-03-01T14:16:41.937Z,7.55
2023-03-01T14:20:54.376Z,7.75
2023-03-01T14:25:21.774Z,7.30
2023-03-01T14:29:39.659Z,7.55
2023-03-01T14:34:00.729Z,7.85
2023-03-01T14:38:24.935Z,8.30
2023-03-01T14:42:38.154Z,8.55
2023-03-01T14:46:58.448Z,8.40
2023-03-01T14:51:13.613Z,8.00
2023-03-01T14:55:43.030Z,8.30
2023-03-01T15:00:04.347Z,7.85
2023-03-01T15:04:17.272Z,8.40
2023-03-01T15:08:34.284Z,8.68
2023-03-01T15:12:46.645Z,8.98
2023-03-01T15:16:59.253Z,9.93
2023-03-01T15:21:31.345Z,9.57
2023-03-01T15:25:46.275Z,9.88
2023-03-01T15:30:03.507Z,9.50
2023-03-01T15:34:33.382Z,10.02
2023-03-01T15:38:59.189Z,10.63
2023-03-01T15:43:43.591Z,10.52
2023-03-01T15:48:21.589Z,10.80
2023-03-01T15:52:42.085Z,11.85
2023-03-01T15:56:54.785Z,11.15
2023-03-01T16:01:14.153Z,9.90
2023-03-01T16:05:30.128Z,11.30
2023-03-01T16:09:43.500Z,12.15
2023-03-01T16:13:56.115Z,12.65
2023-03-01T16:18:11.479Z,13.35
2023-03-01T16:22:26.424Z,12.68
2023-03-01T16:26:39.415Z,12.40
2023-03-01T16:30:52.226Z,12.18
2023-03-01T16:35:05.171Z,13.48
2023-03-01T16:39:18.005Z,13.80
2023-03-01T16:43:31.561Z,14.45
2023-03-01T16:47:44.058Z,15.15
2023-03-01T16:51:56.465Z,15.18
2023-03-01T16:56:11.423Z,15.77
2023-03-01T17:00:24.237Z,16.17
2023-03-01T17:04:37.000Z,14.38
2023-03-01T17:08:49.542Z,13.88
2023-03-01T17:13:02.025Z,13.55
2023-03-01T17:17:15.608Z,11.68
2023-03-01T17:21:27.944Z,17.08
2023-03-01T17:25:47.067Z,19.10
2023-03-01T17:29:59.382Z,18.42
2023-03-01T17:34:11.899Z,20.15
2023-03-01T17:38:24.445Z,18.83
2023-03-01T17:42:36.901Z,16.20
2023-03-01T17:46:49.267Z,13.77
2023-03-01T17:51:07.379Z,12.88
2023-03-01T17:55:19.916Z,11.95
2023-03-01T17:59:33.775Z,13.55
2023-03-01T18:03:47.703Z,18.60
2023-03-01T18:08:00.329Z,13.65
2023-03-01T18:12:12.899Z,13.38
2023-03-01T18:16:25.357Z,16.98
2023-03-01T18:20:37.746Z,16.77
2023-03-01T18:24:53.148Z,17.92
2023-03-01T18:29:05.713Z,16.60
2023-03-01T18:33:17.949Z,15.07
2023-03-01T18:37:30.323Z,14.48
2023-03-01T18:41:42.684Z,13.50
2023-03-01T18:45:59.489Z,14.90
2023-03-01T18:50:12.334Z,16.90
2023-03-01T18:54:24.716Z,16.88
2023-03-01T19:02:51.321Z,15.27
2023-03-01T19:07:04.263Z,16.40
2023-03-01T19:11:19.643Z,16.67
2023-03-01T19:15:32.094Z,19.08
2023-03-01T19:19:45.937Z,21.77
2023-03-01T19:23:59.760Z,21.25
2023-03-01T19:28:12.188Z,22.00
2023-03-01T19:32:24.575Z,23.05
2023-03-01T19:36:37.173Z,22.50
2023-03-01T19:40:49.717Z,23.38
2023-03-01T19:45:02.216Z,24.05
2023-03-01T19:49:14.631Z,22.60
2023-03-01T19:53:27.315Z,20.33
2023-03-01T19:57:42.065Z,20.90
2023-03-01T20:01:56.247Z,20.95
2023-03-01T20:06:13.290Z,23.33
2023-03-01T20:10:26.865Z,21.88
2023-03-01T20:14:39.776Z,22.33
2023-03-01T20:18:54.571Z,21.67
2023-03-01T20:23:07.370Z,24.20
2023-03-01T20:27:19.870Z,23.42
2023-03-01T20:31:32.399Z,25.05
2023-03-01T20:35:44.888Z,31.23
2023-03-01T20:39:57.341Z,33.53
2023-03-01T20:44:10.044Z,24.58
2023-03-01T20:48:22.804Z,26.05
2023-03-01T20:52:45.837Z,25.17
2023-03-01T20:56:59.685Z,23.10
2023-03-01T21:01:18.262Z,23.27
2023-03-01T21:05:31.748Z,34.03
2023-03-01T21:09:45.099Z,36.45
2023-03-01T21:13:57.636Z,32.58
2023-03-01T21:18:10.034Z,35.90
2023-03-01T21:22:22.511Z,31.35
2023-03-01T21:26:35.074Z,29.55
2023-03-01T21:30:47.577Z,32.78
2023-03-01T21:35:00.304Z,32.10
2023-03-01T21:39:15.399Z,30.80
2023-03-01T21:43:28.136Z,31.50
2023-03-01T21:47:40.748Z,28.38
2023-03-01T21:51:53.128Z,27.23
2023-03-01T21:56:06.612Z,27.63
2023-03-01T22:00:23.580Z,27.40
2023-03-01T22:04:36.005Z,25.55
2023-03-01T22:08:52.186Z,24.00
2023-03-01T22:13:04.594Z,23.20
2023-03-01T22:17:16.959Z,22.50
2023-03-01T22:21:29.361Z,26.65
2023-03-01T22:25:42.655Z,26.95
2023-03-01T22:29:54.917Z,28.45
2023-03-01T22:34:07.761Z,31.13
2023-03-01T22:38:20.182Z,31.15
2023-03-01T22:42:32.794Z,30.33
2023-03-01T22:46:46.980Z,28.63
2023-03-01T22:50:59.300Z,30.85
2023-03-01T22:55:11.995Z,30.42
2023-03-01T22:59:24.642Z,31.35
2023-03-01T23:03:37.018Z,34.55
2023-03-01T23:07:49.486Z,33.10
2023-03-01T23:12:06.887Z,36.17
2023-03-01T23:16:20.292Z,36.10
2023-03-01T23:20:36.487Z,31.08
2023-03-01T23:24:49.178Z,31.35
2023-03-01T23:29:01.607Z,30.17
2023-03-01T23:33:14.092Z,27.88
2023-03-01T23:37:31.142Z,25.95
2023-03-01T23:41:43.618Z,22.50
2023-03-01T23:45:56.117Z,22.40
2023-03-01T23:50:09.778Z,20.13
2023-03-01T23:54:25.170Z,20.30
2023-03-01T23:58:37.666Z,18.63
